Flight Track Log - Related Links

Times and Time Zones

All times are in EDT time to prevent confusion due to time zone crossing. See the UAL319 flight status page for this flight to view local times or setup timezone preferences in your user account.

Time Position Orientation Groundspeed Altitude Reporting Facility
EDT Latitude Longitude Course Direction KTS MPH feet Rate Location/Type
Wed 03:43:51 PM 37.6500 -122.3667 134° Southeast 155 178 1,400  Level Northern Cal TRACON
Wed 03:44:51 PM 37.7000 -122.3667 360° North 216 249 3,400 2,350 Climbing Northern Cal TRACON
Wed 03:45:51 PM 37.7000 -122.4333 270° West 243 280 6,100 2,600 Climbing Northern Cal TRACON
Wed 03:46:51 PM 37.6333 -122.4500 191° South 271 312 8,600 2,267 Climbing Northern Cal TRACON
Wed 03:47:00 PM 37.3362 -122.2101 136° Southeast  Level FlightAware Approximate
Wed 03:48:00 PM 37.2480 -122.0806 133° Southeast  Level FlightAware Approximate
Wed 03:48:06 PM 37.5419 -122.4106 161° South 296 341 11,200  Level Oakland Center
Wed 03:49:00 PM 37.1537 -121.9571 134° Southeast  Level FlightAware Approximate
Wed 03:49:07 PM 37.4578 -122.3500 150° Southeast 349 402 13,600  Level Oakland Center
Wed 03:50:09 PM 37.3878 -122.2544 133° Southeast 370 426 15,500 1,951 Climbing Oakland Center
Wed 03:51:10 PM 37.3119 -122.1511 133° Southeast 399 459 17,600 2,213 Climbing Oakland Center
Wed 03:52:11 PM 37.2333 -122.0458 133° Southeast 411 473 20,000 2,390 Climbing Oakland Center
Wed 03:53:13 PM 37.1364 -121.9169 133° Southeast 424 488 22,500 2,049 Climbing Oakland Center
Wed 03:54:14 PM 37.0542 -121.8061 133° Southeast 433 498 24,200 1,623 Climbing Oakland Center
Wed 03:55:15 PM 36.9672 -121.6944 134° Southeast 446 513 25,800 1,561 Climbing Oakland Center
Wed 03:56:17 PM 36.8819 -121.5764 132° Southeast 457 526 27,400 1,415 Climbing Oakland Center
Wed 03:57:18 PM 36.8069 -121.4531 127° Southeast 466 536 28,700 1,475 Climbing Oakland Center
Wed 03:58:19 PM 36.7289 -121.3219 127° Southeast 471 542 30,400 1,707 Climbing Oakland Center
Wed 03:59:21 PM 36.6347 -121.1686 127° Southeast 467 537 32,200 1,317 Climbing Oakland Center
Wed 04:00:22 PM 36.5550 -121.0397 128° Southeast 468 539 33,100 934 Climbing Oakland Center
Wed 04:01:23 PM 36.4733 -120.9056 127° Southeast 482 555 34,100 927 Climbing Oakland Center
Wed 04:02:25 PM 36.3925 -120.7697 126° Southeast 488 562 35,000 439 Climbing Oakland Center
Wed 04:03:26 PM 36.3072 -120.6350 128° Southeast 494 568 35,000  Level Oakland Center
Wed 04:04:27 PM 36.2214 -120.4997 128° Southeast 497 572 35,000  Level Oakland Center
Wed 04:05:28 PM 36.1358 -120.3569 127° Southeast 509 586 35,000  Level Oakland Center
Wed 04:06:30 PM 36.0503 -120.2211 128° Southeast 498 573 35,000  Level Oakland Center
Wed 04:07:31 PM 35.9669 -120.0925 129° Southeast 477 549 35,000 -49 Level Oakland Center
Wed 04:08:32 PM 35.8803 -119.9558 128° Southeast 494 568 34,900  Descending Oakland Center
Wed 04:09:33 PM 35.7942 -119.8203 128° Southeast 497 572 35,000 49 Climbing Oakland Center
Wed 04:10:35 PM 35.7078 -119.6856 128° Southeast 498 573 35,000 -33 Level Oakland Center
Wed 04:12:37 PM 35.5167 -119.3881 128° Southeast 503 579 34,900  Descending Oakland Center
Wed 04:13:22 PM 35.4653 -119.3081 128° Southeast 499 574 35,000 56 Climbing Los Angeles Center
Wed 04:14:24 PM 35.3792 -119.1736 128° Southeast 499 574 35,000  Level Los Angeles Center
Wed 04:15:26 PM 35.2758 -119.0144 128° Southeast 496 571 35,000  Level Los Angeles Center
Wed 04:16:28 PM 35.1883 -118.8819 129° Southeast 499 574 35,000  Level Los Angeles Center
Wed 04:18:32 PM 35.0158 -118.6217 129° Southeast 491 565 35,000 -32 Level Los Angeles Center
Wed 04:19:35 PM 34.9208 -118.5028 134° Southeast 487 560 34,900  Descending Los Angeles Center
Wed 04:20:37 PM 34.8239 -118.3875 136° Southeast 484 557 35,000 48 Climbing Los Angeles Center
Wed 04:21:39 PM 34.7072 -118.2506 136° Southeast 487 560 35,000  Level Los Angeles Center
Wed 04:22:41 PM 34.6156 -118.1381 135° Southeast 483 556 35,000  Level Los Angeles Center
Wed 04:23:43 PM 34.5181 -118.0200 135° Southeast 484 557 35,000  Level Los Angeles Center
Wed 04:24:45 PM 34.4672 -117.8708 112° Southeast 503 579 35,000  Level Los Angeles Center
Wed 04:25:48 PM 34.4269 -117.7161 107° East 491 565 35,000  Level Los Angeles Center
Wed 04:26:49 PM 34.3775 -117.5294 108° East 491 565 35,000  Level Los Angeles Center
Wed 04:27:52 PM 34.3331 -117.3636 108° East 495 570 35,000  Level Los Angeles Center
Wed 04:28:54 PM 34.2900 -117.2092 109° East 490 564 35,000  Level Los Angeles Center
Wed 04:29:56 PM 34.2508 -117.0644 108° East 489 563 35,000  Level Los Angeles Center
Wed 04:30:58 PM 34.2072 -116.9108 109° East 488 562 35,000  Level Los Angeles Center
Wed 04:32:00 PM 34.1572 -116.7256 108° East 486 559 35,000  Level Los Angeles Center
Wed 04:33:02 PM 34.1197 -116.5875 108° East 485 558 35,000  Level Los Angeles Center
Wed 04:34:04 PM 34.0775 -116.4350 108° East 480 552 35,000  Level Los Angeles Center
Wed 04:35:19 PM 34.0175 -116.2186 108° East 484 557 35,000  Level Los Angeles Center
Wed 04:36:21 PM 33.9747 -116.0658 109° East 480 552 35,000  Level Los Angeles Center
Wed 04:37:23 PM 33.9306 -115.9133 109° East 480 552 35,000  Level Los Angeles Center
Wed 04:38:25 PM 33.8872 -115.7611 109° East 479 551 35,000  Level Los Angeles Center
Wed 04:39:27 PM 33.8442 -115.6108 109° East 476 548 35,000  Level Los Angeles Center
Wed 04:40:29 PM 33.7989 -115.4583 110° East 483 556 35,000  Level Los Angeles Center
Wed 04:41:31 PM 33.7464 -115.2767 109° East 479 551 35,000 -48 Level Los Angeles Center
Wed 04:42:33 PM 33.7028 -115.1231 109° East 484 557 34,900  Descending Los Angeles Center
Wed 04:43:36 PM 33.6569 -114.9697 110° East 488 562 35,000 48 Climbing Los Angeles Center
Wed 04:44:38 PM 33.6119 -114.8169 109° East 487 560 35,000  Level Los Angeles Center
Wed 04:45:40 PM 33.5750 -114.6575 106° East 498 573 35,000 -67 Level Los Angeles Center
Wed 04:46:07 PM 33.5642 -114.5719 99° East 495 570 34,900  Descending Albuquerque Center
Wed 04:47:09 PM 33.5358 -114.4078 102° East 501 577 35,000  Climbing Albuquerque Center
Wed 04:48:11 PM 33.5067 -114.2439 102° East 502 578 34,900  Descending Albuquerque Center
Wed 04:50:15 PM 33.4464 -113.9175 102° East 503 579 35,000 32 Climbing Albuquerque Center
Wed 04:51:17 PM 33.4108 -113.7189 102° East 505 581 35,000  Level Albuquerque Center
Wed 04:52:19 PM 33.3808 -113.5508 102° East 509 586 35,000  Level Albuquerque Center
Wed 04:53:21 PM 33.3508 -113.3822 102° East 513 590 35,000 -48 Level Albuquerque Center
Wed 04:54:23 PM 33.3194 -113.2100 102° East 522 601 34,900  Descending Albuquerque Center
Wed 04:55:25 PM 33.2867 -113.0397 103° East 525 604 35,000 48 Climbing Albuquerque Center
Wed 04:56:27 PM 33.2547 -112.8675 102° East 528 608 35,000 -48 Level Albuquerque Center
Wed 04:57:29 PM 33.2211 -112.6964 103° East 528 608 34,900  Descending Albuquerque Center
Wed 04:58:31 PM 33.1722 -112.5039 107° East 529 609 35,000 48 Climbing Albuquerque Center
Wed 04:59:33 PM 33.1125 -112.3386 113° Southeast 522 601 35,000  Level Albuquerque Center
Wed 05:00:35 PM 33.0800 -112.1775 103° East 533 613 35,000  Level Albuquerque Center
Wed 05:01:37 PM 33.0472 -112.0056 103° East 537 618 35,000  Level Albuquerque Center
Wed 05:02:39 PM 33.0083 -111.7994 103° East 537 618 35,000  Level Albuquerque Center
Wed 05:03:41 PM 32.9733 -111.6250 103° East 541 623 35,000  Level Albuquerque Center
Wed 05:04:43 PM 32.9400 -111.4514 103° East 542 624 35,000  Level Albuquerque Center
Wed 05:05:45 PM 32.9058 -111.2767 103° East 544 626 35,000  Level Albuquerque Center
Wed 05:06:47 PM 32.8722 -111.1022 103° East 544 626 35,000  Level Albuquerque Center
Wed 05:07:49 PM 32.8317 -110.8953 103° East 541 623 35,000  Level Albuquerque Center
Wed 05:08:51 PM 32.7969 -110.7228 103° East 539 620 35,000  Level Albuquerque Center
Wed 05:09:53 PM 32.7617 -110.5489 104° East 537 618 35,000  Level Albuquerque Center
Wed 05:10:55 PM 32.7275 -110.3772 103° East 537 618 35,000  Level Albuquerque Center
Wed 05:11:57 PM 32.6922 -110.2075 104° East 538 619 35,000  Level Albuquerque Center
Wed 05:12:59 PM 32.6561 -110.0367 104° East 538 619 35,000  Level Albuquerque Center
Wed 05:14:01 PM 32.6136 -109.8328 104° East 538 619 35,000  Level Albuquerque Center
Wed 05:15:03 PM 32.5767 -109.6608 104° East 542 624 35,000  Level Albuquerque Center
Wed 05:16:05 PM 32.5397 -109.4881 104° East 547 629 35,000  Level Albuquerque Center
Wed 05:17:07 PM 32.5042 -109.3169 104° East 545 627 35,000  Level Albuquerque Center
Wed 05:18:09 PM 32.4583 -109.1092 105° East 551 634 35,000  Level Albuquerque Center
Wed 05:19:11 PM 32.4211 -108.9344 104° East 555 639 35,000  Level Albuquerque Center
Wed 05:20:13 PM 32.3831 -108.7597 104° East 557 641 35,000  Level Albuquerque Center
Wed 05:21:15 PM 32.3453 -108.5842 104° East 558 642 35,000 -48 Level Albuquerque Center
Wed 05:22:17 PM 32.2992 -108.3783 105° East 558 642 34,900  Descending Albuquerque Center
Wed 05:23:19 PM 32.2597 -108.2014 105° East 559 643 35,000 48 Climbing Albuquerque Center
Wed 05:24:21 PM 32.2200 -108.0233 105° East 561 646 35,000 -48 Level Albuquerque Center
Wed 05:25:23 PM 32.1792 -107.8464 105° East 562 647 34,900  Descending Albuquerque Center
Wed 05:26:25 PM 32.1403 -107.6703 105° East 561 646 35,000 48 Climbing Albuquerque Center
Wed 05:27:27 PM 32.0933 -107.4586 105° East 561 646 35,000  Level Albuquerque Center
Wed 05:28:29 PM 32.0528 -107.2831 105° East 562 647 35,000  Level Albuquerque Center
Wed 05:29:31 PM 32.0131 -107.1092 105° East 560 644 35,000  Level Albuquerque Center
Wed 05:30:33 PM 31.9728 -106.9350 105° East 558 642 35,000  Level Albuquerque Center
Wed 05:31:35 PM 31.9236 -106.7272 106° East 556 640 35,000  Level Albuquerque Center
Wed 05:32:37 PM 31.8811 -106.5536 106° East 556 640 35,000  Level Albuquerque Center
Wed 05:33:39 PM 31.8456 -106.3994 105° East 557 641 35,000 -48 Level Albuquerque Center
Wed 05:34:41 PM 31.8044 -106.1867 103° East 559 643 34,900  Descending Albuquerque Center
Wed 05:35:43 PM 31.7822 -106.0061 98° East 559 643 35,000 48 Climbing Albuquerque Center
Wed 05:36:45 PM 31.7606 -105.8250 98° East 560 644 35,000  Level Albuquerque Center
Wed 05:37:47 PM 31.7383 -105.6442 98° East 560 644 35,000 -48 Level Albuquerque Center
Wed 05:38:49 PM 31.7167 -105.4619 98° East 561 646 34,900  Descending Albuquerque Center
Wed 05:39:51 PM 31.6939 -105.2797 98° East 561 646 35,000 49 Climbing Albuquerque Center
Wed 05:40:52 PM 31.6717 -105.0975 98° East 562 647 35,000 -49 Level Albuquerque Center
Wed 05:41:54 PM 31.6444 -104.8817 98° East 559 643 34,900  Descending Albuquerque Center
Wed 05:42:56 PM 31.6217 -104.6992 98° East 562 647 35,000 48 Climbing Albuquerque Center
Wed 05:43:58 PM 31.5981 -104.5192 99° East 558 642 35,000  Level Albuquerque Center
Wed 05:45:00 PM 31.5758 -104.3375 98° East 559 643 35,000  Level Albuquerque Center
Wed 05:46:02 PM 31.5500 -104.1567 99° East 561 646 35,000 -49 Level Albuquerque Center
Wed 05:47:03 PM 31.5261 -103.9747 99° East 563 648 34,900  Descending Albuquerque Center
Wed 05:48:05 PM 31.5014 -103.7947 99° East 560 644 35,000  Climbing Albuquerque Center
Wed 05:49:07 PM 31.4703 -103.5883 100° East 559 643 34,900  Descending Albuquerque Center
Wed 05:50:09 PM 31.4169 -103.4192 110° East 556 640 35,000  Climbing Albuquerque Center
Wed 05:51:11 PM 31.3614 -103.2519 111° Southeast 553 636 34,900 -48 Descending Albuquerque Center
Wed 05:52:13 PM 31.3042 -103.0847 112° Southeast 553 636 34,900 48 Level Albuquerque Center
Wed 05:53:15 PM 31.2378 -102.8858 111° Southeast 553 636 35,000 48 Climbing Albuquerque Center
Wed 05:54:17 PM 31.1803 -102.7189 112° Southeast 554 638 35,000  Level Albuquerque Center
Wed 05:55:18 PM 31.1242 -102.5536 112° Southeast 554 638 35,000  Level Albuquerque Center
Wed 05:56:20 PM 31.0700 -102.3903 111° Southeast 561 646 35,000  Level Albuquerque Center
Wed 05:57:22 PM 31.0125 -102.2258 112° Southeast 554 638 35,000  Level Albuquerque Center
Wed 05:58:25 PM 30.9444 -102.0303 112° Southeast 549 632 35,000  Level Albuquerque Center
Wed 05:59:26 PM 30.8878 -101.8667 112° Southeast 548 631 35,000 -49 Level Albuquerque Center
Wed 06:00:28 PM 30.8314 -101.7031 112° Southeast 548 631 34,900 -59 Descending Albuquerque Center
Wed 06:01:08 PM 30.7894 -101.5792 111° Southeast 551 634 34,900 59 Level Houston Center
Wed 06:02:10 PM 30.7311 -101.4158 113° Southeast 549 632 35,000  Climbing Houston Center
Wed 06:03:13 PM 30.6731 -101.2550 113° Southeast 545 627 34,900  Descending Houston Center
Wed 06:04:15 PM 30.6161 -101.0894 112° Southeast 550 633 35,000 48 Climbing Houston Center
Wed 06:05:17 PM 30.5583 -100.9275 112° Southeast 545 627 35,000 -48 Level Houston Center
Wed 06:06:19 PM 30.5011 -100.7656 112° Southeast 543 625 34,900  Descending Houston Center
Wed 06:07:21 PM 30.4306 -100.5717 113° Southeast 544 626 35,000  Climbing Houston Center
Wed 06:08:23 PM 30.3728 -100.4086 112° Southeast 544 626 34,900 -48 Descending Houston Center
Wed 06:09:25 PM 30.3133 -100.2444 113° Southeast 545 627 34,900 48 Level Houston Center
Wed 06:10:27 PM 30.2517 -100.0797 113° Southeast 549 632 35,000 48 Climbing Houston Center
Wed 06:11:29 PM 30.1919 -99.9172 113° Southeast 543 625 35,000  Level Houston Center
Wed 06:12:32 PM 30.1319 -99.7556 113° Southeast 544 626 35,000  Level Houston Center
Wed 06:13:34 PM 30.0722 -99.5953 113° Southeast 542 624 35,000  Level Houston Center
Wed 06:14:36 PM 30.0122 -99.4339 113° Southeast 544 626 35,000  Level Houston Center
Wed 06:15:38 PM 29.9419 -99.2403 113° Southeast 546 628 35,000  Level Houston Center
Wed 06:17:00 PM 29.8634 -99.0458 115° Southeast  Level FlightAware Approximate
Wed 06:17:42 PM 29.8150 -98.9081 115° Southeast 544 626 35,000  Level Houston Center
Wed 06:18:44 PM 29.7544 -98.7494 114° Southeast 542 624 35,000  Level Houston Center
Wed 06:19:46 PM 29.6892 -98.5778 114° Southeast 542 624 35,000  Level Houston Center
Wed 06:20:48 PM 29.6469 -98.4081 106° East 553 636 35,000  Level Houston Center
Wed 06:21:51 PM 29.6475 -98.2350 90° East 539 620 35,000  Level Houston Center
Wed 06:22:53 PM 29.6503 -98.0500 89° East 539 620 35,000 -97 Level Houston Center
Wed 06:23:55 PM 29.6519 -97.8781 89° East 538 619 34,800 -1,403 Descending Houston Center
Wed 06:24:57 PM 29.6422 -97.7153 94° East 542 624 32,100 -2,323 Descending Houston Center
Wed 06:25:59 PM 29.6303 -97.5442 95° East 541 623 30,000 -2,613 Descending Houston Center
Wed 06:27:01 PM 29.6203 -97.3808 94° East 519 597 26,700 -3,145 Descending Houston Center
Wed 06:28:03 PM 29.6100 -97.1856 93° East 511 588 23,500 -2,710 Descending Houston Center
Wed 06:29:05 PM 29.6008 -97.0317 94° East 484 557 21,100 -2,516 Descending Houston Center
Wed 06:30:07 PM 29.5928 -96.8825 94° East 470 541 18,300 -2,544 Descending Houston Center
Wed 06:31:10 PM 29.5836 -96.7392 94° East 448 516 15,800 -2,400 Descending Houston Center
Wed 06:32:12 PM 29.5747 -96.6022 94° East 429 494 13,300 -2,529 Descending Houston Center
Wed 06:32:52 PM 29.5683 -96.5097 95° East 411 473 11,500 -2,323 Descending Houston Center
Wed 06:33:14 PM 29.5658 -96.4728 94° East 409 471 10,900 -1,475 Descending Houston Center
Wed 06:33:53 PM 29.5572 -96.3789 96° East 400 460 10,000 -968 Descending Houston Center
Wed 06:34:16 PM 29.5561 -96.3481 92° East 395 455 9,900  Descending Houston Center
Wed 06:35:00 PM 29.5506 -96.2500 94° East 335 386 10,000 97 Climbing Houston Center
Wed 06:35:18 PM 29.5489 -96.2389 100° East 348 400 10,000  Level Houston Center
Wed 06:36:08 PM 29.5619 -96.1361 82° East 345 397 10,000 -57 Level Houston Center
Wed 06:37:03 PM 29.6064 -96.0444 61° Northeast 351 404 9,900  Descending Houston Center
Wed 06:37:22 PM 29.6214 -96.0175 57° Northeast 347 399 10,000 109 Climbing Houston Center
Wed 06:37:58 PM 29.6494 -95.9603 61° Northeast 312 359 10,000 -97 Level Houston Center
Wed 06:38:24 PM 29.6631 -95.9344 59° Northeast 324 373 9,900 -1,164 Descending Houston Center
Wed 06:39:05 PM 29.7208 -95.8897 34° Northeast 307 353 8,700 -1,258 Descending Houston Center
Wed 06:39:26 PM 29.7342 -95.8819 27° Northeast 308 354 8,600 -1,258 Descending Houston Center
Wed 06:40:07 PM 29.7969 -95.8472 26° Northeast 301 346 7,400 -1,524 Descending Houston Center
Wed 06:40:29 PM 29.8242 -95.8311 27° Northeast 300 345 7,000 -1,238 Descending Houston Center
Wed 06:41:10 PM 29.8733 -95.8072 23° Northeast 296 341 6,100 -1,258 Descending Houston Center
Wed 06:41:31 PM 29.8992 -95.7911 28° Northeast 296 341 5,700 -636 Descending Houston Center
Wed 06:42:16 PM 29.9533 -95.7642 23° Northeast 264 304 5,400 -290 Descending Houston Center
Wed 06:42:33 PM 29.9694 -95.7550 26° Northeast 282 325 5,400 -590 Level Houston Center
Wed 06:43:17 PM 29.9881 -95.7069 66° East 216 249 4,800 -677 Descending Houston Center
Wed 06:43:35 PM 29.9919 -95.6919 73° East 219 252 4,700 -774 Descending Houston Center
Wed 06:44:19 PM 29.9944 -95.6364 87° East 204 235 4,000 -774 Descending Houston Center
Wed 06:44:37 PM 29.9944 -95.6258 90° East 208 239 3,900 -590 Descending Houston Center
Wed 06:45:20 PM 29.9928 -95.5689 92° East 203 234 3,400 -387 Descending Houston Center
Wed 06:45:39 PM 29.9944 -95.5594 78° East 207 238 3,500 -689 Climbing Houston Center
Wed 06:46:21 PM 29.9936 -95.5086 91° East 184 212 2,700 -857 Descending Houston Center
Wed 06:46:42 PM 29.9947 -95.4986 83° East 200 230 2,600 -286 Descending Houston Center

Login

Don't have an account? Register now (free) for customized features, flight alerts, and more!